Time;durP1;ratioP1;P1;durP2;ratioP2;P2;SDS_P1;SDS_P2;PMS_P1;PMS_P2;Temp;Humidity;BMP_temperature;BMP_pressure;BME280_temperature;BME280_humidity;BME280_pressure;Samples;Min_cycle;Max_cycle;Signal;HPM_P1;HPM_P2
2021/08/16 00:00:48;;;;;;;6.87;4.80;;;17.70;94.00;;;;;;2057491;28;20187;-66
2021/08/16 00:01:49;;;;;;;6.13;4.80;;;17.70;94.00;;;;;;2049379;29;20180;-67
2021/08/16 00:02:50;;;;;;;8.10;4.90;;;17.70;94.10;;;;;;2057351;28;20319;-66
2021/08/16 00:03:51;;;;;;;6.30;5.60;;;17.60;94.20;;;;;;2057907;28;20902;-67
2021/08/16 00:04:51;;;;;;;7.80;5.70;;;17.60;94.30;;;;;;2058019;28;20179;-66
2021/08/16 00:05:52;;;;;;;6.30;4.70;;;17.60;94.40;;;;;;2057267;28;20642;-67
2021/08/16 00:06:53;;;;;;;6.93;4.77;;;17.60;94.40;;;;;;2057279;28;20179;-66
2021/08/16 00:07:54;;;;;;;8.83;4.80;;;17.70;94.40;;;;;;2057828;28;20190;-67
2021/08/16 00:08:54;;;;;;;8.27;5.63;;;17.70;94.30;;;;;;2057929;28;20261;-67
2021/08/16 00:09:55;;;;;;;7.07;5.03;;;17.70;94.20;;;;;;2057878;28;20175;-66
2021/08/16 00:10:56;;;;;;;7.93;4.77;;;17.70;94.20;;;;;;2057928;28;20176;-66
2021/08/16 00:11:56;;;;;;;15.20;6.87;;;17.80;94.40;;;;;;2057302;28;20175;-66
2021/08/16 00:12:57;;;;;;;6.63;4.83;;;17.80;94.30;;;;;;2057290;28;20222;-66
2021/08/16 00:13:58;;;;;;;7.53;5.20;;;17.90;94.30;;;;;;2057858;28;20211;-66
2021/08/16 00:14:58;;;;;;;6.93;5.27;;;17.90;94.30;;;;;;2057958;28;20212;-66
2021/08/16 00:15:59;;;;;;;7.00;5.33;;;17.90;94.20;;;;;;2057272;28;20175;-67
2021/08/16 00:17:00;;;;;;;10.50;6.10;;;18.00;94.20;;;;;;2049257;29;20172;-66
2021/08/16 00:18:02;;;;;;;7.70;5.33;;;18.00;94.00;;;;;;2057373;28;20215;-66
2021/08/16 00:19:03;;;;;;;7.80;5.97;;;18.00;93.90;;;;;;2057940;28;20171;-66
2021/08/16 00:20:06;;;;;;;9.97;6.40;;;18.00;94.00;;;;;;2057170;28;20421;-66
2021/08/16 00:21:06;;;;;;;7.00;5.47;;;18.00;94.10;;;;;;2057342;28;20621;-66
2021/08/16 00:22:07;;;;;;;8.13;5.27;;;18.00;93.90;;;;;;2057841;28;20414;-66
2021/08/16 00:23:08;;;;;;;10.47;5.63;;;18.00;93.80;;;;;;2057825;28;20681;-67
2021/08/16 00:24:09;;;;;;;14.50;6.63;;;18.00;93.80;;;;;;2057910;28;20529;-66
2021/08/16 00:25:09;;;;;;;13.97;5.60;;;18.00;93.90;;;;;;2057193;28;20217;-66
2021/08/16 00:26:10;;;;;;;10.03;6.13;;;17.90;94.00;;;;;;2048193;29;20235;-68
2021/08/16 00:27:11;;;;;;;8.47;6.07;;;18.00;94.20;;;;;;2053352;28;20191;-66
2021/08/16 00:28:12;;;;;;;10.10;6.00;;;18.00;94.30;;;;;;2057163;28;20230;-67
2021/08/16 00:29:12;;;;;;;8.00;5.97;;;18.00;94.90;;;;;;2057558;28;20611;-66
2021/08/16 00:30:14;;;;;;;7.90;6.70;;;18.00;95.20;;;;;;2057837;28;20188;-67
2021/08/16 00:31:14;;;;;;;8.33;6.03;;;18.00;95.30;;;;;;2057088;28;20182;-67
2021/08/16 00:32:15;;;;;;;8.53;6.30;;;18.00;95.30;;;;;;2049105;28;20451;-66
2021/08/16 00:33:16;;;;;;;10.40;6.33;;;18.10;95.20;;;;;;2049100;29;20179;-67
2021/08/16 00:34:16;;;;;;;12.50;6.40;;;18.10;95.00;;;;;;2057150;28;20526;-66
2021/08/16 00:35:18;;;;;;;7.33;6.23;;;18.10;94.90;;;;;;2057717;28;20178;-67
2021/08/16 00:36:19;;;;;;;9.03;6.47;;;18.20;94.90;;;;;;2057136;28;20187;-66
2021/08/16 00:37:19;;;;;;;12.27;7.30;;;18.20;94.90;;;;;;2056958;28;20454;-66
2021/08/16 00:38:20;;;;;;;7.80;6.30;;;18.20;94.80;;;;;;2049052;29;20254;-66
2021/08/16 00:39:21;;;;;;;8.90;6.43;;;18.20;94.80;;;;;;2056962;28;20184;-66
2021/08/16 00:40:22;;;;;;;11.87;7.80;;;18.20;94.70;;;;;;2057594;28;20183;-67
2021/08/16 00:41:23;;;;;;;9.37;6.47;;;18.20;94.70;;;;;;2056932;28;20642;-66
2021/08/16 00:42:24;;;;;;;9.00;6.97;;;18.20;94.80;;;;;;2056796;28;20941;-67
2021/08/16 00:43:25;;;;;;;7.90;5.77;;;18.20;95.00;;;;;;2048943;28;20434;-66
2021/08/16 00:44:27;;;;;;;9.50;6.10;;;18.20;95.00;;;;;;2057024;28;20472;-66
2021/08/16 00:45:29;;;;;;;8.93;6.40;;;18.20;95.10;;;;;;2057477;28;20218;-67
2021/08/16 00:46:30;;;;;;;10.47;6.50;;;18.20;95.10;;;;;;2057603;28;20458;-67
2021/08/16 00:47:31;;;;;;;12.40;6.50;;;18.20;95.00;;;;;;2056806;28;20434;-66
2021/08/16 00:48:32;;;;;;;8.90;6.07;;;18.20;95.00;;;;;;2049037;28;20199;-67
2021/08/16 00:49:33;;;;;;;11.90;6.57;;;18.20;95.00;;;;;;2056841;28;20458;-66
2021/08/16 00:50:34;;;;;;;9.20;5.60;;;18.20;94.90;;;;;;2057625;28;20454;-66
2021/08/16 00:51:37;;;;;;;10.47;6.60;;;18.20;94.80;;;;;;2056908;28;20466;-67
2021/08/16 00:52:39;;;;;;;7.53;5.37;;;18.20;94.80;;;;;;2049203;28;20210;-66
2021/08/16 00:53:41;;;;;;;6.50;4.83;;;18.10;94.80;;;;;;2049167;28;20431;-66
2021/08/16 00:54:42;;;;;;;9.87;6.87;;;18.20;94.80;;;;;;2048615;28;20550;-66
2021/08/16 00:55:42;;;;;;;10.40;6.33;;;18.20;94.70;;;;;;2048644;28;20871;-66
2021/08/16 00:56:43;;;;;;;14.03;6.33;;;18.20;94.60;;;;;;2049071;29;20222;-66
2021/08/16 00:57:44;;;;;;;10.17;5.70;;;18.10;94.60;;;;;;2056737;28;20206;-67
2021/08/16 00:58:45;;;;;;;9.07;5.93;;;18.10;94.60;;;;;;2057553;28;20175;-66
2021/08/16 00:59:46;;;;;;;10.60;6.60;;;18.10;94.60;;;;;;2056729;28;20429;-66
2021/08/16 01:00:48;;;;;;;8.13;6.50;;;18.10;94.60;;;;;;2056906;28;20230;-66
2021/08/16 01:01:49;;;;;;;9.90;6.57;;;18.10;94.60;;;;;;2056743;28;20183;-67
2021/08/16 01:02:50;;;;;;;7.77;6.77;;;18.10;94.70;;;;;;2056746;28;20969;-66
2021/08/16 01:03:51;;;;;;;9.30;5.97;;;18.10;94.80;;;;;;2057373;28;20195;-66
2021/08/16 01:04:52;;;;;;;8.67;6.47;;;18.10;94.80;;;;;;2057462;28;20423;-66
2021/08/16 01:05:57;;;;;;;12.63;6.23;;;18.10;94.80;;;;;;2056746;28;20198;-66
2021/08/16 01:06:58;;;;;;;8.37;5.13;;;18.10;94.80;;;;;;2056716;28;20183;-66
2021/08/16 01:07:58;;;;;;;7.87;5.27;;;18.20;94.80;;;;;;2057391;28;20441;-67
2021/08/16 01:08:59;;;;;;;12.27;5.93;;;18.20;94.80;;;;;;2056769;28;20182;-66
2021/08/16 01:10:03;;;;;;;10.17;6.80;;;18.20;95.40;;;;;;2048695;28;20183;-66
2021/08/16 01:11:04;;;;;;;13.93;6.80;;;18.20;94.80;;;;;;2056696;28;20573;-66
2021/08/16 01:12:07;;;;;;;7.67;5.90;;;18.20;94.80;;;;;;2056736;28;20454;-67
2021/08/16 01:13:07;;;;;;;12.77;6.70;;;18.20;94.70;;;;;;2049004;28;20176;-66
2021/08/16 01:14:08;;;;;;;7.13;5.20;;;18.20;94.60;;;;;;2056757;28;20810;-67
2021/08/16 01:15:12;;;;;;;8.60;5.97;;;18.20;94.70;;;;;;2057294;28;20299;-66
2021/08/16 01:16:18;;;;;;;9.27;5.70;;;18.10;94.70;;;;;;2056669;28;20330;-66
2021/08/16 01:17:19;;;;;;;9.03;5.97;;;18.10;94.80;;;;;;2049109;28;20422;-66
2021/08/16 01:18:19;;;;;;;24.60;6.60;;;18.10;94.70;;;;;;2056765;28;20429;-66
2021/08/16 01:19:24;;;;;;;9.40;6.60;;;18.10;94.70;;;;;;2057189;28;20681;-67
2021/08/16 01:20:24;;;;;;;11.60;6.40;;;18.10;94.80;;;;;;2057339;28;20234;-66
2021/08/16 01:21:25;;;;;;;9.37;5.57;;;18.00;94.70;;;;;;2057254;28;20899;-67
2021/08/16 01:22:26;;;;;;;6.87;5.23;;;18.00;94.70;;;;;;2056669;28;20740;-67
2021/08/16 01:23:27;;;;;;;9.33;5.37;;;18.00;94.60;;;;;;2056610;28;20531;-66
2021/08/16 01:24:28;;;;;;;7.57;5.13;;;17.90;94.70;;;;;;2057381;28;20618;-66
2021/08/16 01:25:29;;;;;;;7.50;5.50;;;17.80;94.90;;;;;;2057120;28;20576;-66
2021/08/16 01:26:34;;;;;;;5.87;4.53;;;17.70;95.00;;;;;;2057309;28;20302;-66
2021/08/16 01:27:36;;;;;;;8.10;5.77;;;17.70;95.00;;;;;;2056434;28;20422;-66
2021/08/16 01:28:36;;;;;;;7.00;5.20;;;17.70;95.00;;;;;;2056664;28;20422;-66
2021/08/16 01:29:38;;;;;;;7.83;5.33;;;17.60;94.90;;;;;;2056475;28;20553;-66
2021/08/16 01:30:39;;;;;;;5.93;4.60;;;17.60;94.70;;;;;;2056645;28;20175;-66
2021/08/16 01:31:40;;;;;;;9.27;5.60;;;17.60;94.70;;;;;;2056536;28;20425;-66
2021/08/16 01:32:42;;;;;;;10.17;5.17;;;17.50;94.60;;;;;;2057182;28;20293;-66
2021/08/16 01:33:43;;;;;;;5.43;4.30;;;17.50;94.70;;;;;;2056536;28;20190;-67
2021/08/16 01:34:44;;;;;;;6.50;4.60;;;17.50;94.70;;;;;;2056596;28;20509;-66
2021/08/16 01:35:44;;;;;;;7.53;4.83;;;17.50;94.70;;;;;;2057056;28;20266;-66
2021/08/16 01:36:45;;;;;;;7.80;4.13;;;17.50;94.80;;;;;;2056534;28;20199;-66
2021/08/16 01:37:47;;;;;;;8.80;5.43;;;17.50;94.90;;;;;;2056358;28;20806;-66
2021/08/16 01:38:48;;;;;;;6.27;5.40;;;17.50;94.90;;;;;;2057181;28;20175;-66
2021/08/16 01:39:48;;;;;;;5.30;4.80;;;17.50;94.90;;;;;;2057060;28;20426;-66
2021/08/16 01:40:49;;;;;;;5.83;4.97;;;17.60;94.90;;;;;;2048593;29;20187;-67
2021/08/16 01:41:50;;;;;;;8.67;5.80;;;17.60;95.00;;;;;;2048594;29;20200;-66
2021/08/16 01:42:51;;;;;;;8.07;5.37;;;17.60;95.60;;;;;;2056529;28;20207;-66
2021/08/16 01:43:52;;;;;;;10.37;6.33;;;17.60;95.20;;;;;;2056577;28;20501;-66
2021/08/16 01:44:52;;;;;;;8.53;5.80;;;17.60;95.20;;;;;;2057162;28;20175;-66
2021/08/16 01:45:53;;;;;;;9.50;5.23;;;17.60;95.20;;;;;;2057013;28;20206;-67
2021/08/16 01:46:54;;;;;;;6.10;4.67;;;17.70;95.20;;;;;;2056983;28;20198;-66
2021/08/16 01:47:55;;;;;;;6.07;5.47;;;17.70;95.10;;;;;;2057016;28;20179;-67
2021/08/16 01:48:56;;;;;;;7.40;5.17;;;17.70;95.00;;;;;;2064392;28;20174;-66
2021/08/16 01:49:56;;;;;;;6.73;5.57;;;17.70;94.80;;;;;;2056482;28;20226;-67
2021/08/16 01:50:57;;;;;;;8.87;4.90;;;17.70;94.60;;;;;;2056590;28;20175;-66
2021/08/16 01:51:58;;;;;;;6.33;5.13;;;17.60;94.70;;;;;;2064579;28;20175;-66
2021/08/16 01:52:58;;;;;;;7.07;5.10;;;17.60;94.80;;;;;;2057138;28;20191;-66
2021/08/16 01:53:59;;;;;;;8.97;4.97;;;17.50;94.80;;;;;;2057164;28;20171;-66
2021/08/16 01:55:00;;;;;;;7.17;5.20;;;17.50;94.80;;;;;;2057181;28;20171;-66
2021/08/16 01:56:01;;;;;;;7.70;5.67;;;17.60;94.90;;;;;;2057030;28;20175;-66
2021/08/16 01:57:02;;;;;;;6.67;4.67;;;17.60;94.90;;;;;;2056895;28;20450;-66
2021/08/16 01:58:04;;;;;;;6.70;5.10;;;17.50;94.80;;;;;;2057065;28;20175;-66
2021/08/16 01:59:06;;;;;;;5.50;4.70;;;17.50;94.80;;;;;;2056514;28;20467;-66
2021/08/16 02:00:07;;;;;;;6.87;5.23;;;17.50;94.80;;;;;;2056454;28;20422;-66
2021/08/16 02:01:08;;;;;;;10.80;5.40;;;17.40;94.90;;;;;;2057027;28;20490;-67
2021/08/16 02:02:09;;;;;;;5.60;4.40;;;17.50;95.00;;;;;;2057034;28;20450;-66
2021/08/16 02:03:10;;;;;;;5.77;5.13;;;17.40;95.60;;;;;;2057097;28;20175;-66
2021/08/16 02:04:11;;;;;;;7.50;5.27;;;17.30;95.10;;;;;;2057096;28;20682;-67
2021/08/16 02:05:11;;;;;;;6.40;5.50;;;17.20;95.30;;;;;;2057036;28;20427;-66
2021/08/16 02:06:14;;;;;;;8.60;5.33;;;17.20;95.30;;;;;;2057001;28;20258;-66
2021/08/16 02:07:15;;;;;;;6.13;4.73;;;17.20;95.30;;;;;;2055699;28;20573;-67
2021/08/16 02:08:16;;;;;;;7.73;4.90;;;17.20;95.30;;;;;;2056456;28;20434;-66
2021/08/16 02:09:17;;;;;;;6.77;4.87;;;17.10;95.20;;;;;;2056957;28;20458;-66
2021/08/16 02:10:18;;;;;;;6.47;4.37;;;17.20;95.20;;;;;;2057107;28;20677;-66
2021/08/16 02:11:20;;;;;;;10.53;6.73;;;17.20;95.10;;;;;;2056469;28;20206;-66
2021/08/16 02:12:21;;;;;;;7.40;5.73;;;17.20;95.80;;;;;;2048721;28;20430;-67
2021/08/16 02:13:21;;;;;;;8.33;5.67;;;17.20;95.80;;;;;;2056437;28;20426;-67
2021/08/16 02:14:22;;;;;;;11.13;6.70;;;17.20;95.70;;;;;;2057159;28;20179;-66
2021/08/16 02:15:23;;;;;;;7.43;5.10;;;17.30;95.70;;;;;;2057106;28;20194;-66
2021/08/16 02:16:23;;;;;;;8.20;5.40;;;17.40;95.70;;;;;;2057022;28;20201;-67
2021/08/16 02:17:24;;;;;;;7.30;5.43;;;17.40;95.60;;;;;;2056619;28;20202;-67
2021/08/16 02:18:25;;;;;;;6.33;5.13;;;17.40;95.50;;;;;;2053727;28;20179;-66
2021/08/16 02:19:26;;;;;;;9.23;5.30;;;17.40;95.30;;;;;;2056805;28;20183;-67
2021/08/16 02:20:26;;;;;;;6.47;5.17;;;17.50;95.30;;;;;;2057008;28;20688;-66
2021/08/16 02:21:27;;;;;;;9.70;5.30;;;17.50;95.20;;;;;;2056935;28;20175;-66
2021/08/16 02:22:28;;;;;;;5.30;4.53;;;17.50;95.10;;;;;;2056993;28;20203;-66
2021/08/16 02:23:29;;;;;;;8.73;5.63;;;17.50;95.20;;;;;;2056333;28;20191;-67
2021/08/16 02:24:29;;;;;;;13.63;4.80;;;17.50;95.70;;;;;;2056396;28;20183;-66
2021/08/16 02:25:30;;;;;;;8.30;5.50;;;17.50;95.10;;;;;;2056971;28;20183;-66
2021/08/16 02:26:31;;;;;;;6.50;4.33;;;17.50;95.20;;;;;;2056981;28;20720;-66
2021/08/16 02:27:31;;;;;;;7.13;5.33;;;17.60;95.00;;;;;;2056638;28;20221;-66
2021/08/16 02:28:33;;;;;;;15.30;4.63;;;17.60;94.90;;;;;;2056288;28;20193;-66
2021/08/16 02:29:35;;;;;;;6.23;4.40;;;17.60;94.90;;;;;;2048401;28;20230;-67
2021/08/16 02:30:36;;;;;;;6.40;4.73;;;17.60;94.90;;;;;;2048533;28;20439;-66
2021/08/16 02:31:37;;;;;;;8.23;5.10;;;17.70;94.80;;;;;;2056208;28;20423;-66
2021/08/16 02:32:37;;;;;;;7.73;4.93;;;17.60;94.70;;;;;;2056882;28;20250;-67
2021/08/16 02:33:38;;;;;;;6.47;5.13;;;17.60;94.60;;;;;;2056828;28;20175;-66
2021/08/16 02:34:39;;;;;;;7.93;3.97;;;17.60;94.60;;;;;;2056886;28;20175;-66
2021/08/16 02:35:41;;;;;;;6.03;4.93;;;17.60;94.40;;;;;;2048130;29;20180;-66
2021/08/16 02:36:42;;;;;;;8.93;4.63;;;17.60;94.50;;;;;;2048600;28;20187;-66
2021/08/16 02:37:43;;;;;;;7.43;3.93;;;17.60;94.50;;;;;;2056666;28;20430;-66
2021/08/16 02:38:44;;;;;;;6.53;5.27;;;17.60;94.40;;;;;;2056202;28;20582;-66
2021/08/16 02:39:45;;;;;;;9.10;4.30;;;17.60;94.60;;;;;;2056140;28;20227;-66
2021/08/16 02:40:45;;;;;;;6.63;4.20;;;17.60;94.50;;;;;;2056140;28;20685;-66
2021/08/16 02:41:46;;;;;;;4.77;4.00;;;17.60;94.50;;;;;;2049354;28;20203;-66
2021/08/16 02:42:47;;;;;;;6.53;4.23;;;17.70;94.20;;;;;;2048684;29;20203;-66
2021/08/16 02:43:47;;;;;;;5.30;3.67;;;17.70;94.10;;;;;;2048748;28;20180;-67
2021/08/16 02:44:48;;;;;;;3.93;3.43;;;17.70;94.20;;;;;;2048242;29;20225;-66
2021/08/16 02:45:49;;;;;;;4.83;3.77;;;17.70;94.30;;;;;;2048219;29;20267;-66
2021/08/16 02:46:50;;;;;;;7.60;4.17;;;17.80;94.30;;;;;;2048694;28;20183;-66
2021/08/16 02:47:51;;;;;;;3.77;3.47;;;17.80;94.20;;;;;;2048173;29;20187;-67
2021/08/16 02:48:52;;;;;;;6.97;4.07;;;17.80;94.10;;;;;;2048193;29;20585;-66
2021/08/16 02:49:53;;;;;;;5.27;3.97;;;17.80;94.10;;;;;;2047917;29;20467;-66
2021/08/16 02:50:53;;;;;;;4.80;3.87;;;17.80;94.10;;;;;;2048199;29;20462;-66
2021/08/16 02:51:54;;;;;;;6.23;3.70;;;17.80;94.20;;;;;;2048758;28;20833;-66
2021/08/16 02:52:55;;;;;;;4.47;3.73;;;17.80;94.20;;;;;;2048651;29;20199;-66
2021/08/16 02:53:56;;;;;;;4.90;4.00;;;17.80;94.10;;;;;;2048133;29;20172;-66
2021/08/16 02:54:58;;;;;;;6.93;4.70;;;17.70;94.00;;;;;;2048179;29;20168;-66
2021/08/16 02:55:59;;;;;;;4.20;3.73;;;17.80;94.10;;;;;;2048187;28;20423;-66
2021/08/16 02:57:00;;;;;;;6.03;4.00;;;17.70;94.20;;;;;;2055998;28;20454;-67
2021/08/16 02:58:00;;;;;;;6.37;4.17;;;17.80;94.10;;;;;;2048775;28;20172;-67
2021/08/16 02:59:01;;;;;;;7.70;4.37;;;17.80;94.00;;;;;;2048780;28;20238;-66
2021/08/16 03:00:03;;;;;;;6.30;4.43;;;17.80;94.00;;;;;;2048711;28;20187;-66
2021/08/16 03:01:03;;;;;;;8.63;5.03;;;17.80;94.10;;;;;;2048691;28;20549;-67
2021/08/16 03:02:04;;;;;;;5.70;4.20;;;17.80;94.10;;;;;;2048727;28;20427;-66
2021/08/16 03:03:05;;;;;;;8.07;4.57;;;17.80;94.10;;;;;;2048050;29;20715;-66
2021/08/16 03:04:05;;;;;;;6.50;4.57;;;17.80;94.20;;;;;;2048049;29;20182;-66
2021/08/16 03:05:07;;;;;;;6.30;5.17;;;17.90;94.20;;;;;;2048705;29;20179;-66
2021/08/16 03:06:08;;;;;;;5.40;4.53;;;17.90;94.20;;;;;;2048790;28;20215;-66
2021/08/16 03:07:09;;;;;;;8.53;5.43;;;17.90;94.10;;;;;;2048697;28;20423;-66
2021/08/16 03:08:10;;;;;;;4.73;3.93;;;17.90;94.10;;;;;;2048761;28;20180;-66
2021/08/16 03:09:11;;;;;;;4.73;4.07;;;17.90;94.00;;;;;;2048562;28;20796;-66
2021/08/16 03:10:14;;;;;;;6.33;5.10;;;17.90;94.10;;;;;;2048080;29;20179;-66
2021/08/16 03:11:15;;;;;;;8.53;4.10;;;17.80;94.20;;;;;;2040465;29;20223;-66
2021/08/16 03:12:18;;;;;;;6.87;4.90;;;17.70;94.40;;;;;;2040166;29;21031;-66
2021/08/16 03:13:19;;;;;;;6.70;4.77;;;17.60;94.60;;;;;;2048085;29;20175;-66
2021/08/16 03:14:19;;;;;;;8.83;4.60;;;17.70;94.50;;;;;;2048687;28;20423;-66
2021/08/16 03:15:21;;;;;;;5.20;4.53;;;17.80;94.50;;;;;;2048631;29;20180;-66
2021/08/16 03:16:22;;;;;;;6.50;5.07;;;17.70;94.50;;;;;;2048712;28;20674;-66
2021/08/16 03:17:23;;;;;;;7.07;4.97;;;17.80;94.50;;;;;;2048479;28;20430;-67
2021/08/16 03:18:23;;;;;;;5.60;4.03;;;17.70;94.50;;;;;;2049645;28;20199;-67
2021/08/16 03:19:24;;;;;;;5.93;4.70;;;17.70;94.50;;;;;;2050265;28;20188;-66
2021/08/16 03:20:25;;;;;;;7.73;5.37;;;17.80;94.50;;;;;;2050304;28;20184;-67
2021/08/16 03:21:26;;;;;;;6.90;4.70;;;17.80;94.50;;;;;;2049641;29;20238;-66
2021/08/16 03:22:27;;;;;;;6.87;4.43;;;17.80;94.50;;;;;;2049631;29;20978;-66
2021/08/16 03:23:28;;;;;;;7.10;4.60;;;17.80;94.50;;;;;;2049677;29;20267;-66
2021/08/16 03:24:31;;;;;;;8.80;5.40;;;17.80;94.60;;;;;;2049659;29;20179;-66
2021/08/16 03:25:32;;;;;;;7.63;4.53;;;17.90;94.60;;;;;;2049602;29;20419;-66
2021/08/16 03:26:33;;;;;;;6.13;4.30;;;17.80;94.60;;;;;;2042205;29;20867;-66
2021/08/16 03:27:34;;;;;;;6.90;5.20;;;17.80;94.70;;;;;;2049425;29;20655;-66
2021/08/16 03:28:35;;;;;;;6.50;4.67;;;17.80;94.60;;;;;;2049688;29;20438;-66
2021/08/16 03:29:36;;;;;;;6.70;4.43;;;17.80;94.60;;;;;;2049446;29;20575;-66
2021/08/16 03:30:37;;;;;;;5.70;4.23;;;17.80;94.60;;;;;;2050292;28;20212;-66
2021/08/16 03:31:37;;;;;;;9.23;4.50;;;17.80;94.70;;;;;;2057526;28;20182;-66
2021/08/16 03:32:38;;;;;;;6.53;4.97;;;17.80;94.70;;;;;;2057806;28;20431;-66
2021/08/16 03:33:39;;;;;;;6.53;4.47;;;17.80;94.60;;;;;;2050180;29;20184;-67
2021/08/16 03:34:40;;;;;;;13.10;4.70;;;17.80;94.50;;;;;;2050315;29;20176;-66
2021/08/16 03:35:41;;;;;;;6.40;4.17;;;17.80;94.50;;;;;;2049726;29;20188;-67
2021/08/16 03:36:42;;;;;;;7.33;4.50;;;17.80;94.50;;;;;;2049680;29;20443;-66
2021/08/16 03:37:45;;;;;;;14.97;3.97;;;17.70;94.40;;;;;;2050084;29;20419;-67
2021/08/16 03:38:46;;;;;;;5.63;4.47;;;17.70;94.40;;;;;;2050323;28;20180;-67
2021/08/16 03:39:47;;;;;;;6.43;5.20;;;17.70;94.30;;;;;;2050215;28;21042;-67
2021/08/16 03:40:47;;;;;;;6.10;5.30;;;17.70;94.30;;;;;;2050340;29;20203;-66
2021/08/16 03:41:48;;;;;;;5.23;4.70;;;17.60;94.30;;;;;;2050089;28;20195;-67
2021/08/16 03:42:49;;;;;;;6.27;4.17;;;17.60;94.40;;;;;;2041640;29;20208;-66
2021/08/16 03:43:49;;;;;;;6.10;4.40;;;17.60;94.40;;;;;;2041691;29;20187;-66
2021/08/16 03:44:50;;;;;;;8.40;5.43;;;17.60;94.40;;;;;;2050308;28;20230;-66
2021/08/16 03:45:51;;;;;;;8.17;5.60;;;17.60;94.30;;;;;;2050229;28;20674;-66
2021/08/16 03:46:51;;;;;;;6.03;4.37;;;17.60;94.30;;;;;;2049596;29;20188;-67
2021/08/16 03:47:53;;;;;;;6.27;5.33;;;17.70;94.40;;;;;;2049546;29;20180;-66
2021/08/16 03:48:54;;;;;;;8.67;5.23;;;17.70;94.40;;;;;;2049573;29;20554;-66
2021/08/16 03:49:55;;;;;;;5.70;5.10;;;17.70;94.40;;;;;;2049380;29;20438;-66
2021/08/16 03:50:56;;;;;;;7.17;4.53;;;17.70;94.50;;;;;;2050105;29;20176;-66
2021/08/16 03:51:56;;;;;;;7.63;4.87;;;17.70;94.60;;;;;;2049477;29;20180;-66
2021/08/16 03:52:57;;;;;;;10.50;6.13;;;17.70;94.70;;;;;;2049386;29;20568;-66
2021/08/16 03:53:58;;;;;;;8.40;5.37;;;17.70;94.70;;;;;;2050099;28;20195;-66
2021/08/16 03:54:59;;;;;;;8.33;5.40;;;17.60;94.70;;;;;;2050098;28;20180;-66
2021/08/16 03:55:59;;;;;;;8.00;4.80;;;17.70;94.80;;;;;;2050080;28;20180;-66
2021/08/16 03:57:00;;;;;;;6.07;4.90;;;17.70;94.60;;;;;;2049844;28;20204;-66
2021/08/16 03:58:01;;;;;;;7.10;5.00;;;17.70;94.60;;;;;;2049468;29;20180;-66
2021/08/16 03:59:01;;;;;;;4.30;3.70;;;17.70;95.00;;;;;;2049301;28;20271;-66
2021/08/16 04:00:10;;;;;;;7.50;4.77;;;17.70;94.20;;;;;;2049354;29;20187;-66
2021/08/16 04:01:11;;;;;;;6.20;4.60;;;17.70;94.00;;;;;;2049322;29;20199;-66
2021/08/16 04:02:12;;;;;;;6.07;4.50;;;17.70;94.20;;;;;;2049298;29;20431;-66
2021/08/16 04:03:13;;;;;;;6.00;4.33;;;17.70;94.30;;;;;;2049894;28;20423;-66
2021/08/16 04:04:14;;;;;;;6.40;4.33;;;17.70;94.20;;;;;;2050040;28;20745;-66
2021/08/16 04:05:15;;;;;;;8.27;4.60;;;17.70;94.20;;;;;;2057224;28;20194;-66
2021/08/16 04:06:16;;;;;;;12.40;4.67;;;17.70;93.90;;;;;;2057316;28;20446;-66
2021/08/16 04:07:17;;;;;;;7.43;3.93;;;17.70;94.10;;;;;;2049816;28;20212;-67
2021/08/16 04:08:17;;;;;;;5.43;3.90;;;17.70;93.90;;;;;;2049991;28;20183;-66
2021/08/16 04:09:18;;;;;;;3.90;3.23;;;17.70;93.80;;;;;;2057173;28;20271;-66
2021/08/16 04:10:19;;;;;;;7.83;3.97;;;17.70;93.90;;;;;;2057384;28;20233;-66
2021/08/16 04:11:20;;;;;;;8.07;4.27;;;17.70;93.80;;;;;;2050010;28;20436;-66
2021/08/16 04:12:21;;;;;;;5.43;3.60;;;17.70;93.70;;;;;;2049354;29;20487;-66
2021/08/16 04:13:22;;;;;;;3.90;3.37;;;17.70;93.80;;;;;;2049304;29;20183;-66
2021/08/16 04:14:22;;;;;;;6.00;3.37;;;17.70;93.10;;;;;;2049365;29;20176;-66
2021/08/16 04:15:23;;;;;;;5.00;3.90;;;17.70;92.90;;;;;;2049264;29;20184;-66
2021/08/16 04:16:24;;;;;;;4.40;3.73;;;17.70;93.00;;;;;;2049349;29;20188;-66
2021/08/16 04:17:24;;;;;;;6.63;4.13;;;17.60;93.20;;;;;;2049097;29;20176;-66
2021/08/16 04:18:25;;;;;;;5.83;3.97;;;17.60;92.50;;;;;;2049940;28;20267;-66
2021/08/16 04:19:26;;;;;;;6.20;3.70;;;17.60;92.40;;;;;;2052299;28;20771;-66
2021/08/16 04:20:27;;;;;;;6.23;3.80;;;17.50;92.60;;;;;;2049917;28;20187;-66
2021/08/16 04:21:27;;;;;;;4.97;3.20;;;17.40;92.50;;;;;;2049889;28;20283;-66
2021/08/16 04:22:28;;;;;;;4.67;2.90;;;17.50;92.60;;;;;;2049839;28;20246;-66
2021/08/16 04:23:29;;;;;;;7.73;3.77;;;17.40;92.80;;;;;;2049932;28;20187;-67
2021/08/16 04:24:30;;;;;;;4.53;4.03;;;17.40;92.90;;;;;;2049875;28;20342;-66
2021/08/16 04:25:30;;;;;;;7.37;3.43;;;17.40;92.90;;;;;;2049821;28;20460;-66
2021/08/16 04:26:31;;;;;;;4.27;3.00;;;17.40;91.90;;;;;;2049887;28;20191;-66
2021/08/16 04:27:33;;;;;;;6.30;3.63;;;17.40;92.10;;;;;;2049656;28;20243;-66
2021/08/16 04:28:34;;;;;;;5.50;3.80;;;17.30;92.40;;;;;;2049817;28;20270;-66
2021/08/16 04:29:34;;;;;;;6.67;2.80;;;17.30;92.50;;;;;;2049022;28;20470;-66
2021/08/16 04:30:35;;;;;;;5.80;3.00;;;17.30;92.40;;;;;;2049527;28;20214;-67
2021/08/16 04:31:36;;;;;;;9.43;3.83;;;17.30;92.40;;;;;;2049114;28;20179;-66
2021/08/16 04:32:37;;;;;;;2.77;2.57;;;17.30;92.20;;;;;;2041254;29;20223;-66
2021/08/16 04:33:37;;;;;;;4.87;3.13;;;17.30;92.10;;;;;;2049205;29;20186;-66
2021/08/16 04:34:38;;;;;;;4.53;3.47;;;17.40;92.30;;;;;;2049825;28;20206;-66
2021/08/16 04:35:39;;;;;;;5.60;2.87;;;17.40;92.50;;;;;;2049830;28;20275;-66
2021/08/16 04:36:40;;;;;;;4.90;3.00;;;17.40;91.90;;;;;;2049132;29;20204;-66
2021/08/16 04:37:41;;;;;;;5.10;3.47;;;17.40;92.20;;;;;;2049129;29;20988;-66
2021/08/16 04:38:42;;;;;;;7.00;3.57;;;17.40;92.20;;;;;;2049716;28;20247;-66
2021/08/16 04:39:43;;;;;;;10.50;3.27;;;17.40;92.10;;;;;;2049686;28;20973;-66
2021/08/16 04:40:43;;;;;;;5.33;2.83;;;17.40;91.90;;;;;;2049694;28;20690;-66
2021/08/16 04:41:44;;;;;;;6.20;3.10;;;17.40;92.00;;;;;;2049671;28;20180;-66
2021/08/16 04:42:45;;;;;;;4.67;3.43;;;17.40;91.90;;;;;;2049677;28;20584;-66
2021/08/16 04:43:46;;;;;;;4.43;3.53;;;17.40;92.00;;;;;;2049702;28;20191;-66
2021/08/16 04:44:47;;;;;;;5.57;3.13;;;17.40;91.60;;;;;;2049780;28;20195;-66
2021/08/16 04:45:48;;;;;;;6.47;3.80;;;17.40;91.60;;;;;;2049089;29;20650;-66
2021/08/16 04:46:48;;;;;;;8.80;3.40;;;17.40;91.90;;;;;;2049024;28;20419;-66
2021/08/16 04:47:49;;;;;;;4.17;2.87;;;17.40;92.10;;;;;;2049717;28;20435;-66
2021/08/16 04:48:50;;;;;;;7.73;3.73;;;17.30;91.80;;;;;;2049615;28;20204;-66
2021/08/16 04:49:54;;;;;;;6.33;3.53;;;17.30;91.90;;;;;;2048924;29;20620;-66
2021/08/16 04:50:54;;;;;;;5.20;3.27;;;17.20;92.20;;;;;;2049021;29;20681;-66
2021/08/16 04:51:55;;;;;;;5.60;3.07;;;17.20;92.20;;;;;;2049092;29;20424;-67
2021/08/16 04:52:56;;;;;;;7.40;3.67;;;17.20;92.20;;;;;;2048909;28;20230;-66
2021/08/16 04:53:56;;;;;;;9.07;4.33;;;17.20;92.20;;;;;;2049019;29;20271;-66
2021/08/16 04:54:57;;;;;;;3.33;2.77;;;17.20;92.00;;;;;;2048956;29;20310;-66
2021/08/16 04:55:58;;;;;;;4.90;2.70;;;17.20;91.60;;;;;;2049066;28;20560;-66
2021/08/16 04:56:58;;;;;;;5.23;2.73;;;17.20;91.70;;;;;;2047861;29;20202;-66
2021/08/16 04:57:59;;;;;;;6.27;3.47;;;17.20;92.10;;;;;;2048947;29;20282;-66
2021/08/16 04:59:00;;;;;;;6.90;4.33;;;17.20;92.30;;;;;;2048738;29;20282;-66
2021/08/16 05:00:03;;;;;;;8.03;3.63;;;17.20;92.40;;;;;;2049464;28;20551;-66
2021/08/16 05:01:04;;;;;;;4.77;3.40;;;17.20;92.40;;;;;;2048671;29;20447;-66
2021/08/16 05:02:05;;;;;;;5.67;3.93;;;17.20;91.90;;;;;;2048949;29;20518;-66
2021/08/16 05:03:06;;;;;;;5.37;3.63;;;17.30;92.10;;;;;;2048575;28;20306;-66
2021/08/16 05:04:06;;;;;;;5.60;3.27;;;17.30;91.70;;;;;;2049010;29;20605;-66
2021/08/16 05:05:10;;;;;;;4.27;3.10;;;17.30;91.80;;;;;;2049444;28;20184;-66
2021/08/16 05:06:11;;;;;;;7.83;3.27;;;17.40;91.60;;;;;;2049519;28;20206;-66
2021/08/16 05:07:11;;;;;;;4.47;3.13;;;17.30;91.20;;;;;;2048950;28;20436;-66
2021/08/16 05:08:12;;;;;;;4.50;4.07;;;17.30;91.70;;;;;;2049508;29;20184;-66
2021/08/16 05:09:13;;;;;;;5.90;3.50;;;17.30;91.60;;;;;;2049037;28;20631;-67
2021/08/16 05:10:15;;;;;;;4.27;3.30;;;17.40;91.60;;;;;;2049547;28;20183;-66
2021/08/16 05:11:16;;;;;;;5.20;3.30;;;17.40;91.50;;;;;;2049032;28;20439;-66
2021/08/16 05:12:17;;;;;;;4.20;3.00;;;17.40;91.70;;;;;;2049403;28;20467;-66
2021/08/16 05:13:17;;;;;;;4.93;3.57;;;17.40;91.20;;;;;;2049404;29;20179;-66
2021/08/16 05:14:18;;;;;;;3.93;3.03;;;17.40;91.40;;;;;;2049540;28;20195;-66
2021/08/16 05:15:20;;;;;;;4.57;2.90;;;17.40;91.60;;;;;;2049403;28;20211;-66
2021/08/16 05:16:25;;;;;;;6.63;3.60;;;17.40;91.60;;;;;;2048788;29;20195;-66
2021/08/16 05:17:26;;;;;;;4.83;3.03;;;17.40;91.60;;;;;;2048463;29;20408;-66